Time;durP1;ratioP1;P1;durP2;ratioP2;P2;SDS_P1;SDS_P2;PMS_P1;PMS_P2;Temp;Humidity;BMP_temperature;BMP_pressure;BME280_temperature;BME280_humidity;BME280_pressure;Samples;Min_cycle;Max_cycle;Signal;HPM_P1;HPM_P2
2023/01/22 00:01:58;;;;;;;55.38;20.80;;;;;;;11.51;52.82;103215.81;5068813;28;20029;-52
2023/01/22 00:04:24;;;;;;;46.73;19.00;;;;;;;11.39;52.98;103223.16;5067774;28;20036;-54
2023/01/22 00:06:49;;;;;;;44.33;18.20;;;;;;;11.28;53.21;103210.75;5066808;28;20029;-55
2023/01/22 00:09:14;;;;;;;45.03;18.93;;;;;;;11.17;53.10;103222.44;5066752;28;20167;-56
2023/01/22 00:11:40;;;;;;;38.17;13.40;;;;;;;11.40;53.01;103221.34;5063794;28;20037;-51
2023/01/22 00:14:06;;;;;;;45.85;18.17;;;;;;;11.21;53.08;103216.84;5067684;28;20059;-53
2023/01/22 00:16:31;;;;;;;52.42;19.42;;;;;;;11.42;52.85;103225.56;5062769;28;20052;-52
2023/01/22 00:18:57;;;;;;;46.03;17.37;;;;;;;11.34;53.07;103225.41;5063535;28;20093;-51
2023/01/22 00:21:23;;;;;;;50.80;18.80;;;;;;;11.12;53.62;103214.00;5064049;28;20049;-51
2023/01/22 00:23:48;;;;;;;52.15;18.95;;;;;;;11.23;53.02;103220.22;5067077;28;20041;-50
2023/01/22 00:26:15;;;;;;;49.30;19.47;;;;;;;11.55;52.58;103219.91;5062966;28;20047;-50
2023/01/22 00:28:46;;;;;;;46.80;17.63;;;;;;;11.34;52.69;103206.66;5062707;28;20037;-51
2023/01/22 00:31:13;;;;;;;42.10;16.70;;;;;;;11.42;52.67;103200.59;5058075;28;20037;-49
2023/01/22 00:33:39;;;;;;;46.67;18.75;;;;;;;11.23;53.00;103196.13;5064239;28;20067;-49
2023/01/22 00:36:07;;;;;;;47.15;18.98;;;;;;;11.39;52.62;103195.53;5062409;28;20029;-51
2023/01/22 00:38:32;;;;;;;48.10;18.88;;;;;;;11.36;52.63;103195.81;5063147;28;20052;-51
2023/01/22 00:41:03;;;;;;;46.35;17.95;;;;;;;11.18;53.49;103191.19;5061020;28;20374;-51
2023/01/22 00:43:29;;;;;;;42.53;18.75;;;;;;;11.24;53.32;103195.97;5061597;28;20097;-51
2023/01/22 00:45:55;;;;;;;49.93;19.37;;;;;;;11.27;53.31;103184.94;5068260;28;20025;-54
2023/01/22 00:48:21;;;;;;;49.55;19.73;;;;;;;11.40;52.88;103187.34;5065987;28;20275;-51
2023/01/22 00:50:47;;;;;;;45.13;17.45;;;;;;;11.29;53.04;103182.97;5058214;28;20041;-50
2023/01/22 00:53:13;;;;;;;44.70;17.67;;;;;;;11.32;52.80;103180.03;5064440;28;20033;-52
2023/01/22 00:55:39;;;;;;;45.50;16.92;;;;;;;11.14;53.37;103181.75;5059780;28;20037;-52
2023/01/22 00:58:04;;;;;;;44.10;18.37;;;;;;;11.18;52.95;103173.25;5058517;28;20029;-55
2023/01/22 01:00:30;;;;;;;35.80;13.55;;;;;;;10.89;53.74;103176.78;5059654;28;20033;-57
2023/01/22 01:05:41;;;;;;;48.35;19.23;;;;;;;11.07;53.07;103176.09;5061510;28;20048;-56
2023/01/22 01:08:06;;;;;;;43.58;18.00;;;;;;;11.14;53.03;103168.34;5062783;28;20030;-50
2023/01/22 01:10:32;;;;;;;49.23;18.43;;;;;;;11.21;53.29;103172.13;5061487;28;20033;-52
2023/01/22 01:12:57;;;;;;;39.13;17.13;;;;;;;10.98;53.04;103171.59;5059585;28;20033;-53
2023/01/22 01:15:23;;;;;;;40.63;17.02;;;;;;;10.98;53.27;103169.75;5060136;28;20087;-52
2023/01/22 01:17:48;;;;;;;46.17;17.63;;;;;;;11.02;53.32;103170.31;5058065;28;20036;-52
2023/01/22 01:20:14;;;;;;;38.87;15.37;;;;;;;10.97;53.46;103173.41;5060836;28;20271;-51
2023/01/22 01:22:39;;;;;;;45.75;17.13;;;;;;;11.07;53.09;103162.72;5058127;28;20267;-55
2023/01/22 01:25:05;;;;;;;46.03;18.67;;;;;;;11.30;52.33;103173.97;5057779;28;20029;-51
2023/01/22 01:27:31;;;;;;;47.53;18.38;;;;;;;11.09;53.46;103170.59;5061783;28;20064;-52
2023/01/22 01:29:57;;;;;;;42.22;18.02;;;;;;;10.89;53.87;103160.72;5059441;28;20091;-49
2023/01/22 01:32:23;;;;;;;44.42;17.30;;;;;;;10.96;53.76;103165.53;5057608;28;20036;-52
2023/01/22 01:34:49;;;;;;;43.90;18.52;;;;;;;10.97;54.11;103162.72;5057148;28;20041;-51
2023/01/22 01:37:15;;;;;;;47.67;17.70;;;;;;;11.05;53.48;103152.13;5058890;28;20029;-52
2023/01/22 01:39:41;;;;;;;47.55;19.25;;;;;;;11.07;53.80;103156.50;5057380;28;20068;-48
2023/01/22 01:42:07;;;;;;;42.23;17.13;;;;;;;11.12;54.03;103147.06;5059021;28;20030;-51
2023/01/22 01:44:33;;;;;;;39.53;16.00;;;;;;;11.08;53.85;103144.81;5058805;28;20281;-50
2023/01/22 01:47:21;;;;;;;41.33;16.37;;;;;;;11.20;53.92;103146.34;5057654;28;20033;-50
2023/01/22 01:49:51;;;;;;;37.17;15.65;;;;;;;11.19;54.01;103141.97;5056545;28;20025;-52
2023/01/22 01:52:17;;;;;;;41.47;17.65;;;;;;;11.17;53.52;103141.28;5055995;28;20055;-50
2023/01/22 01:54:48;;;;;;;35.67;15.23;;;;;;;11.15;53.87;103137.91;5059500;28;20097;-51
2023/01/22 01:57:19;;;;;;;36.65;15.50;;;;;;;11.55;52.58;103141.34;5056612;28;20075;-53
2023/01/22 01:59:47;;;;;;;43.85;17.33;;;;;;;11.28;53.06;103142.97;5057957;28;20030;-51
2023/01/22 02:02:14;;;;;;;38.85;16.83;;;;;;;11.19;53.74;103141.97;5059226;28;20025;-53
2023/01/22 02:04:41;;;;;;;35.72;16.13;;;;;;;11.30;53.13;103140.97;5059451;28;20037;-50
2023/01/22 02:07:07;;;;;;;40.83;17.23;;;;;;;11.18;53.80;103142.97;5057312;28;20033;-49
2023/01/22 02:09:33;;;;;;;36.60;15.40;;;;;;;11.19;53.85;103139.28;5056555;28;20029;-49
2023/01/22 02:11:59;;;;;;;;;;;;;;;11.21;54.05;103150.72;5055442;28;20068;-52
2023/01/22 02:14:29;;;;;;;36.50;14.23;;;;;;;11.14;54.13;103134.34;5060505;28;19912;-53
2023/01/22 02:17:18;;;;;;;38.58;16.50;;;;;;;11.55;53.66;103126.13;5069539;28;20037;-52
2023/01/22 02:19:44;;;;;;;34.47;13.43;;;;;;;11.17;53.84;103134.06;5058887;28;20048;-47
2023/01/22 02:22:29;;;;;;;34.87;15.90;;;;;;;11.00;54.44;103127.63;5062388;28;20088;-52
2023/01/22 02:24:56;;;;;;;35.25;15.95;;;;;;;11.08;54.26;103123.41;5057995;28;20269;-50
2023/01/22 02:27:22;;;;;;;36.15;16.92;;;;;;;11.12;54.17;103122.13;5060198;28;20120;-51
2023/01/22 02:29:49;;;;;;;34.03;14.02;;;;;;;11.25;53.90;103125.31;5059847;28;20052;-51
2023/01/22 02:32:15;;;;;;;25.25;11.63;;;;;;;11.00;54.68;103119.56;5069754;28;20100;-51
2023/01/22 02:34:40;;;;;;;34.70;16.07;;;;;;;11.39;53.66;103117.84;5055806;28;20051;-51
2023/01/22 02:37:06;;;;;;;38.22;15.55;;;;;;;11.39;53.69;103118.66;5056831;28;20033;-51
2023/01/22 02:39:31;;;;;;;34.50;14.30;;;;;;;11.44;53.28;103119.09;5055694;28;20040;-51
2023/01/22 02:42:01;;;;;;;32.03;14.38;;;;;;;11.56;53.01;103122.44;5055428;28;20036;-50
2023/01/22 02:44:26;;;;;;;30.40;13.52;;;;;;;11.43;52.82;103124.59;5069272;28;20074;-55
2023/01/22 02:46:52;;;;;;;27.95;11.65;;;;;;;11.31;53.26;103121.22;5055777;28;20063;-53
2023/01/22 02:49:18;;;;;;;35.77;15.73;;;;;;;11.31;53.25;103124.78;5059899;28;20063;-49
2023/01/22 02:51:43;;;;;;;33.10;15.40;;;;;;;11.28;53.40;103127.72;5056986;28;20305;-51
2023/01/22 02:54:09;;;;;;;30.07;13.43;;;;;;;11.37;53.27;103125.19;5058009;28;20036;-53
2023/01/22 02:56:35;;;;;;;27.47;13.87;;;;;;;11.22;53.79;103124.78;5054673;28;20266;-54
2023/01/22 02:59:02;;;;;;;29.83;12.93;;;;;;;11.33;53.27;103127.28;5056010;28;20136;-51
2023/01/22 03:01:27;;;;;;;32.63;14.93;;;;;;;11.26;53.68;103121.66;5054684;28;20018;-51
2023/01/22 03:03:56;;;;;;;29.50;14.07;;;;;;;11.41;53.00;103124.72;5058979;28;20033;-52
2023/01/22 03:06:24;;;;;;;31.75;13.32;;;;;;;11.44;52.96;103119.09;5054566;28;20061;-55
2023/01/22 03:08:55;;;;;;;39.38;16.35;;;;;;;11.41;52.96;103119.38;5056636;28;20045;-48
2023/01/22 03:11:21;;;;;;;34.17;14.45;;;;;;;11.37;52.78;103112.59;5070034;28;20039;-55
2023/01/22 03:22:09;;;;;;;28.83;14.38;;;;;;;11.35;53.61;103119.13;5053558;28;20025;-54
2023/01/22 03:24:35;;;;;;;34.75;16.02;;;;;;;11.24;53.25;103123.63;5055842;28;20104;-51
2023/01/22 03:27:02;;;;;;;35.55;15.52;;;;;;;11.26;53.73;103113.63;5069807;28;20036;-52
2023/01/22 03:29:29;;;;;;;34.00;14.63;;;;;;;11.30;53.70;103127.56;5039485;28;20030;-52
2023/01/22 03:31:55;;;;;;;32.97;14.53;;;;;;;11.21;53.96;103118.56;5056551;28;20060;-52
2023/01/22 03:34:23;;;;;;;23.70;10.80;;;;;;;11.18;54.21;103121.53;5054300;28;20041;-53
2023/01/22 03:36:49;;;;;;;35.15;16.10;;;;;;;11.35;53.80;103119.13;5054656;28;20053;-55
2023/01/22 03:39:16;;;;;;;35.60;15.02;;;;;;;11.17;54.69;103119.84;5054659;28;20069;-50
2023/01/22 03:41:42;;;;;;;38.72;16.25;;;;;;;11.27;54.24;103117.16;5054650;28;20036;-55
2023/01/22 03:44:10;;;;;;;35.90;15.57;;;;;;;11.24;54.38;103110.25;5054888;28;20041;-51
2023/01/22 03:46:39;;;;;;;37.70;16.27;;;;;;;11.45;54.03;103110.06;5059274;28;20093;-53
2023/01/22 03:49:06;;;;;;;35.10;16.08;;;;;;;11.27;54.07;103112.63;5055540;28;20064;-55
2023/01/22 03:51:32;;;;;;;33.17;14.65;;;;;;;11.07;54.74;103110.97;5052491;28;20055;-54
2023/01/22 03:53:58;;;;;;;35.58;15.05;;;;;;;11.03;54.82;103113.94;5071438;28;20045;-53
2023/01/22 03:56:25;;;;;;;32.80;14.00;;;;;;;10.97;55.16;103117.19;5052931;28;20040;-54
2023/01/22 03:58:55;;;;;;;36.42;15.48;;;;;;;11.11;55.07;103115.91;5055835;28;20048;-50
2023/01/22 04:01:24;;;;;;;31.85;14.00;;;;;;;11.19;55.00;103115.19;5054330;28;20052;-52
2023/01/22 04:03:51;;;;;;;32.30;14.90;;;;;;;11.07;55.12;103111.81;5059662;28;20056;-51
2023/01/22 04:06:20;;;;;;;34.20;15.23;;;;;;;11.18;55.43;103111.66;5053324;28;20728;-51
2023/01/22 04:08:48;;;;;;;34.58;14.55;;;;;;;11.29;55.23;103102.63;5055309;28;20059;-54
2023/01/22 04:11:14;;;;;;;28.98;14.43;;;;;;;11.39;54.64;103110.63;5054258;28;20037;-50
2023/01/22 04:13:42;;;;;;;27.85;12.18;;;;;;;11.34;54.81;103104.88;5054067;28;20034;-52
2023/01/22 04:16:10;;;;;;;28.88;13.45;;;;;;;11.42;54.49;103105.00;5052919;28;20045;-52
2023/01/22 04:18:54;;;;;;;30.50;13.07;;;;;;;11.14;55.56;103106.75;5058417;28;20048;-52
2023/01/22 04:21:40;;;;;;;31.73;13.48;;;;;;;11.52;55.44;103110.31;5052729;28;20042;-51
2023/01/22 04:24:08;;;;;;;34.17;14.35;;;;;;;11.62;55.04;103103.09;5058907;28;20021;-54
2023/01/22 04:26:33;;;;;;;20.00;9.77;;;;;;;11.63;55.15;103090.53;5052727;28;20060;-54
2023/01/22 04:29:01;;;;;;;31.10;13.60;;;;;;;11.52;55.27;103102.25;5056474;28;20033;-50
2023/01/22 04:31:26;;;;;;;26.03;11.63;;;;;;;11.46;55.21;103100.19;5056092;28;20106;-50
2023/01/22 04:34:19;;;;;;;30.55;12.90;;;;;;;11.40;55.18;103109.63;5060979;28;20065;-52
2023/01/22 04:36:52;;;;;;;29.50;12.00;;;;;;;11.41;55.33;103103.28;5060424;28;20020;-52
2023/01/22 04:39:19;;;;;;;31.10;11.95;;;;;;;11.47;55.16;103108.09;5061895;28;20021;-49
2023/01/22 04:41:44;;;;;;;30.30;11.83;;;;;;;11.37;55.88;103101.91;5063541;28;20029;-52
2023/01/22 04:44:10;;;;;;;32.70;12.90;;;;;;;11.55;55.88;103098.47;5061992;28;20037;-53
2023/01/22 04:46:35;;;;;;;23.45;10.23;;;;;;;11.41;55.70;103097.09;5059519;28;20033;-53
2023/01/22 04:49:01;;;;;;;26.43;11.77;;;;;;;11.62;55.69;103095.06;5063551;28;20033;-51
2023/01/22 04:51:28;;;;;;;28.85;12.85;;;;;;;11.64;55.86;103096.75;5061738;28;20097;-52
2023/01/22 04:53:54;;;;;;;29.27;11.73;;;;;;;12.09;55.48;103101.34;5063497;28;20079;-53
2023/01/22 04:56:20;;;;;;;25.55;12.57;;;;;;;12.27;54.47;103103.25;5057186;28;20270;-52
2023/01/22 04:58:48;;;;;;;;;;;;;;;12.42;54.09;103109.75;5061603;28;20033;-53
2023/01/22 05:01:14;;;;;;;27.05;11.27;;;;;;;12.39;55.32;103107.38;5056317;28;19913;-51
2023/01/22 05:03:40;;;;;;;26.45;11.85;;;;;;;12.65;54.57;103109.31;5058317;28;20044;-49
2023/01/22 05:06:07;;;;;;;31.23;13.55;;;;;;;12.67;54.02;103107.31;5059495;28;20140;-52
2023/01/22 05:08:34;;;;;;;27.15;11.60;;;;;;;12.65;53.85;103100.41;5059519;28;20527;-50
2023/01/22 05:11:02;;;;;;;25.48;11.25;;;;;;;12.85;54.17;103101.94;5058881;28;20034;-50
2023/01/22 05:13:35;;;;;;;25.58;11.82;;;;;;;12.67;54.40;103099.25;5062269;28;20033;-49
2023/01/22 05:16:01;;;;;;;25.52;10.20;;;;;;;12.54;54.11;103106.88;5060878;28;20025;-56
2023/01/22 05:18:26;;;;;;;26.30;11.67;;;;;;;12.80;53.97;103108.78;5080836;28;20040;-52
2023/01/22 05:20:53;;;;;;;25.37;10.97;;;;;;;12.72;53.93;103102.34;5057359;28;20285;-53
2023/01/22 05:23:21;;;;;;;29.70;11.77;;;;;;;12.70;54.08;103103.47;5057593;28;20030;-50
2023/01/22 05:25:48;;;;;;;16.10;7.63;;;;;;;12.35;54.73;103100.63;5058943;28;20142;-51
2023/01/22 05:28:15;;;;;;;26.95;10.60;;;;;;;12.34;54.79;103098.94;5059030;28;20033;-50
2023/01/22 05:30:59;;;;;;;25.10;11.35;;;;;;;12.32;54.56;103100.94;5057486;28;20067;-51
2023/01/22 05:33:32;;;;;;;21.42;11.02;;;;;;;12.64;54.10;103101.41;5058460;28;20073;-54
2023/01/22 05:35:59;;;;;;;18.13;9.23;;;;;;;12.47;54.43;103104.78;5056238;28;20036;-52
2023/01/22 05:38:26;;;;;;;26.52;9.95;;;;;;;13.05;53.46;103101.78;5063230;28;20052;-54
2023/01/22 05:40:51;;;;;;;28.52;11.02;;;;;;;12.91;53.40;103104.00;5061077;28;20037;-56
2023/01/22 05:43:17;;;;;;;20.33;9.82;;;;;;;12.68;53.67;103111.69;5056301;28;20101;-54
2023/01/22 05:45:49;;;;;;;21.52;8.98;;;;;;;13.25;52.92;103121.22;5062919;28;20057;-55
2023/01/22 05:48:38;;;;;;;21.23;9.15;;;;;;;13.46;52.39;103120.88;5057391;28;20202;-51
2023/01/22 05:51:17;;;;;;;21.42;10.35;;;;;;;13.29;52.49;103127.13;5057521;28;20037;-56
2023/01/22 05:53:42;;;;;;;22.58;9.57;;;;;;;13.58;51.76;103134.88;5064663;28;20113;-51
2023/01/22 05:56:08;;;;;;;25.00;8.97;;;;;;;13.43;51.95;103136.47;5057685;28;20041;-50
2023/01/22 05:58:37;;;;;;;20.20;8.90;;;;;;;12.47;53.93;103126.25;5058211;28;20029;-51
2023/01/22 06:01:03;;;;;;;24.00;9.15;;;;;;;12.00;55.38;103127.19;5062711;28;20032;-52
2023/01/22 06:03:34;;;;;;;21.35;10.18;;;;;;;13.13;53.67;103130.50;5056620;28;20106;-50
2023/01/22 06:06:09;;;;;;;21.98;10.48;;;;;;;13.22;52.75;103132.28;5060052;28;20033;-52
2023/01/22 06:08:35;;;;;;;19.60;9.13;;;;;;;12.97;52.98;103134.78;5059150;28;20132;-55
2023/01/22 06:11:05;;;;;;;20.80;9.53;;;;;;;13.04;53.20;103126.94;5061326;28;20025;-54
2023/01/22 06:13:32;;;;;;;21.42;9.27;;;;;;;13.31;52.75;103125.94;5059282;28;20029;-48
2023/01/22 06:16:06;;;;;;;23.42;9.98;;;;;;;13.27;52.41;103124.56;5059570;28;20668;-50
2023/01/22 06:18:54;;;;;;;19.30;8.82;;;;;;;13.23;52.19;103125.03;5055518;28;20052;-49
2023/01/22 06:21:22;;;;;;;20.55;8.75;;;;;;;12.54;53.37;103122.97;5057716;28;20025;-48
2023/01/22 06:23:47;;;;;;;22.02;9.13;;;;;;;12.12;54.65;103117.16;5056897;28;20092;-51
2023/01/22 06:26:13;;;;;;;19.00;8.63;;;;;;;12.22;54.74;103122.47;5058685;28;20040;-49
2023/01/22 06:28:39;;;;;;;;;;;;;;;12.25;54.93;103116.78;5062784;28;20128;-49
2023/01/22 06:31:06;;;;;;;19.37;8.77;;;;;;;12.31;54.99;103123.41;5063223;28;19917;-50
2023/01/22 06:33:34;;;;;;;18.45;9.00;;;;;;;12.47;54.69;103120.03;5058498;28;20126;-52
2023/01/22 06:36:01;;;;;;;20.85;8.90;;;;;;;12.32;55.01;103119.72;5065434;28;20457;-50
2023/01/22 06:38:27;;;;;;;16.33;8.90;;;;;;;12.15;54.99;103127.56;5061614;28;20025;-49
2023/01/22 06:40:57;;;;;;;17.60;8.18;;;;;;;12.17;55.33;103130.13;5064144;28;20029;-49
2023/01/22 06:43:24;;;;;;;19.85;9.20;;;;;;;12.07;55.31;103130.16;5059264;28;20029;-51
2023/01/22 06:45:51;;;;;;;19.02;8.70;;;;;;;12.24;55.31;103131.19;5058657;28;20048;-49
2023/01/22 06:48:20;;;;;;;20.50;8.75;;;;;;;11.95;55.82;103126.81;5059482;28;20021;-49
2023/01/22 06:50:46;;;;;;;15.35;6.70;;;;;;;12.17;54.95;103139.00;5054802;28;20112;-54
2023/01/22 06:53:12;;;;;;;17.40;8.10;;;;;;;11.96;55.42;103135.69;5057543;28;20043;-49
2023/01/22 06:55:37;;;;;;;17.02;8.55;;;;;;;11.94;55.63;103137.66;5058807;28;20044;-48
2023/01/22 06:58:03;;;;;;;21.07;9.37;;;;;;;12.03;55.66;103134.97;5060422;28;20034;-53
2023/01/22 07:00:29;;;;;;;13.70;7.20;;;;;;;11.91;56.09;103136.97;5061913;28;20262;-49
2023/01/22 07:02:54;;;;;;;19.30;8.77;;;;;;;12.19;55.71;103131.63;5058248;28;20060;-52
2023/01/22 07:05:20;;;;;;;20.63;8.23;;;;;;;12.17;55.49;103130.13;5064861;28;20032;-52
2023/01/22 07:07:46;;;;;;;15.50;8.00;;;;;;;12.30;55.49;103140.50;5056528;28;20084;-53
2023/01/22 07:10:12;;;;;;;;;;;;;;;12.27;55.21;103136.25;5063647;28;20154;-50
2023/01/22 07:12:38;;;;;;;19.30;8.47;;;;;;;12.22;55.41;103126.97;5053897;28;19925;-49
2023/01/22 07:15:05;;;;;;;21.10;8.03;;;;;;;12.33;55.05;103129.44;5058807;28;20061;-51
2023/01/22 07:17:31;;;;;;;17.33;9.13;;;;;;;12.30;55.04;103125.22;5058563;28;20029;-52
2023/01/22 07:19:56;;;;;;;17.23;8.73;;;;;;;12.37;55.31;103133.50;5060909;28;20056;-48
2023/01/22 07:22:22;;;;;;;16.13;8.57;;;;;;;12.42;55.03;103133.91;5055802;28;20033;-48
2023/01/22 07:24:48;;;;;;;22.20;9.10;;;;;;;12.46;55.26;103132.63;5059815;28;20039;-50
2023/01/22 07:27:14;;;;;;;15.70;8.33;;;;;;;12.48;55.08;103130.63;5058283;28;20297;-49
2023/01/22 07:29:39;;;;;;;20.08;8.88;;;;;;;12.60;54.34;103141.13;5059415;28;20029;-53
2023/01/22 07:32:04;;;;;;;19.80;8.57;;;;;;;12.68;54.29;103143.88;5058950;28;20063;-51
2023/01/22 07:34:30;;;;;;;22.43;9.67;;;;;;;12.50;54.85;103129.63;5056754;28;20045;-50
2023/01/22 07:36:55;;;;;;;25.43;10.03;;;;;;;12.54;54.39;103128.34;5061028;28;20342;-49
2023/01/22 07:39:21;;;;;;;20.58;9.15;;;;;;;12.18;54.89;103135.31;5060825;28;20025;-48
2023/01/22 07:41:46;;;;;;;19.50;9.70;;;;;;;12.43;54.77;103132.91;5060536;28;20054;-50
2023/01/22 07:44:12;;;;;;;17.97;8.30;;;;;;;12.50;54.55;103143.06;5061234;28;20029;-52
2023/01/22 07:46:40;;;;;;;17.27;8.10;;;;;;;12.43;54.86;103129.41;5065164;28;20034;-51
2023/01/22 07:49:06;;;;;;;23.35;9.25;;;;;;;12.27;54.95;103140.78;5056364;28;20033;-48
2023/01/22 07:51:31;;;;;;;21.02;10.15;;;;;;;12.37;54.95;103146.94;5054970;28;20026;-50
2023/01/22 07:53:57;;;;;;;16.52;8.57;;;;;;;12.36;55.00;103149.78;5056752;28;20033;-51
2023/01/22 07:56:22;;;;;;;16.08;8.25;;;;;;;12.22;55.35;103149.28;5055250;28;20038;-53
2023/01/22 07:58:48;;;;;;;21.70;10.30;;;;;;;12.11;55.39;103141.41;5054111;28;20048;-56
2023/01/22 08:01:14;;;;;;;21.53;9.33;;;;;;;12.22;55.09;103143.91;5056896;28;20030;-54
2023/01/22 08:03:40;;;;;;;24.13;9.90;;;;;;;11.97;55.42;103143.59;5059535;28;20052;-50
2023/01/22 08:06:10;;;;;;;21.80;8.35;;;;;;;12.03;55.36;103140.34;5056949;28;20034;-47
2023/01/22 08:08:36;;;;;;;22.30;10.15;;;;;;;12.03;55.17;103150.25;5062743;28;20039;-50
2023/01/22 08:11:01;;;;;;;20.75;8.45;;;;;;;11.99;55.44;103146.09;5062531;28;20034;-48
2023/01/22 08:13:27;;;;;;;18.60;8.73;;;;;;;11.98;55.28;103147.09;5062538;28;20065;-51
2023/01/22 08:15:53;;;;;;;17.00;9.13;;;;;;;11.86;55.55;103143.75;5061977;28;20298;-50
2023/01/22 08:18:19;;;;;;;17.53;8.80;;;;;;;11.96;55.40;103146.41;5063968;28;20033;-53
2023/01/22 08:20:44;;;;;;;21.13;8.45;;;;;;;12.03;55.24;103147.56;5059753;28;20281;-50
2023/01/22 08:23:10;;;;;;;22.83;9.80;;;;;;;11.98;55.20;103157.81;5061942;28;20037;-51
2023/01/22 08:25:36;;;;;;;16.98;7.60;;;;;;;11.94;55.52;103157.31;5057587;28;20041;-50
2023/01/22 08:28:03;;;;;;;25.13;12.53;;;;;;;12.00;55.52;103161.22;5058027;28;20037;-50
2023/01/22 08:30:33;;;;;;;21.67;11.02;;;;;;;12.16;55.40;103158.75;5056163;28;20030;-55
2023/01/22 08:33:01;;;;;;;27.40;13.30;;;;;;;12.51;54.49;103168.91;5058336;28;20039;-50
2023/01/22 08:35:28;;;;;;;26.58;11.98;;;;;;;12.15;55.03;103165.13;5060151;28;20040;-51
2023/01/22 08:37:57;;;;;;;26.17;11.57;;;;;;;12.17;55.01;103173.88;5055546;28;20049;-52
2023/01/22 08:40:23;;;;;;;26.33;11.48;;;;;;;12.12;55.39;103175.34;5055924;28;20060;-54
2023/01/22 08:42:53;;;;;;;21.13;9.57;;;;;;;12.11;55.24;103170.94;5056162;28;20057;-53
2023/01/22 08:45:18;;;;;;;23.85;11.02;;;;;;;12.15;55.35;103165.13;5058141;28;20279;-52
2023/01/22 08:47:44;;;;;;;22.83;9.63;;;;;;;12.17;55.50;103165.81;5060520;28;20044;-52
2023/01/22 08:50:10;;;;;;;21.00;10.70;;;;;;;12.03;56.02;103155.59;5062242;28;20162;-53
2023/01/22 08:52:35;;;;;;;17.17;8.50;;;;;;;12.38;55.80;103150.47;5057655;28;20025;-55
2023/01/22 08:55:01;;;;;;;19.23;9.47;;;;;;;12.53;55.49;103156.16;5055699;28;20038;-51
2023/01/22 08:57:26;;;;;;;66.85;28.15;;;;;;;12.56;55.63;103159.38;5056270;28;20052;-52
2023/01/22 08:59:52;;;;;;;23.23;9.83;;;;;;;12.67;54.96;103169.03;5055235;28;20041;-52
2023/01/22 09:02:17;;;;;;;19.80;8.50;;;;;;;12.79;54.94;103175.03;5055660;28;20263;-51
2023/01/22 09:04:43;;;;;;;18.00;8.80;;;;;;;12.94;54.72;103171.81;5054753;28;20060;-55
2023/01/22 09:07:09;;;;;;;20.20;9.48;;;;;;;12.85;54.85;103173.59;5058744;28;20045;-50
2023/01/22 09:09:35;;;;;;;19.83;10.77;;;;;;;13.18;54.51;103172.03;5056479;28;20038;-56
2023/01/22 09:12:01;;;;;;;16.88;7.70;;;;;;;13.15;54.30;103166.97;5057627;28;20084;-50
2023/01/22 09:14:27;;;;;;;18.53;8.60;;;;;;;13.24;54.28;103165.19;5062326;28;20041;-53
2023/01/22 09:16:52;;;;;;;20.48;7.68;;;;;;;13.43;53.99;103172.25;5057404;28;20041;-56
2023/01/22 09:19:19;;;;;;;19.33;9.13;;;;;;;13.31;53.90;103166.25;5061239;28;20049;-56
2023/01/22 09:21:44;;;;;;;18.20;9.30;;;;;;;12.93;54.63;103168.31;5060713;28;20604;-50
2023/01/22 09:24:10;;;;;;;17.07;8.50;;;;;;;12.97;54.75;103172.38;5062816;28;20345;-53
2023/01/22 09:26:35;;;;;;;15.33;7.13;;;;;;;13.15;54.21;103176.91;5062082;28;20070;-53
2023/01/22 09:29:04;;;;;;;15.57;7.60;;;;;;;13.32;53.97;103177.88;5061716;28;20169;-56
2023/01/22 09:31:32;;;;;;;25.50;9.95;;;;;;;13.41;53.90;103176.09;5065712;28;20100;-56
2023/01/22 09:33:58;;;;;;;16.02;8.32;;;;;;;13.43;53.75;103179.50;5058309;28;20064;-48
2023/01/22 09:36:24;;;;;;;16.15;8.27;;;;;;;14.26;52.78;103172.69;5058366;28;20081;-53
2023/01/22 09:38:49;;;;;;;14.77;8.13;;;;;;;14.01;52.40;103183.34;5059921;28;20034;-52
2023/01/22 09:41:26;;;;;;;12.87;7.03;;;;;;;13.55;53.35;103186.28;5057539;28;20338;-51
2023/01/22 09:43:56;;;;;;;13.48;7.50;;;;;;;13.40;53.69;103182.47;5059024;28;20161;-52
2023/01/22 09:46:51;;;;;;;16.77;8.00;;;;;;;13.48;53.54;103186.06;5061021;28;20029;-52
2023/01/22 09:49:19;;;;;;;15.80;7.70;;;;;;;13.48;53.79;103188.75;5059624;28;20075;-52
2023/01/22 09:51:53;;;;;;;14.57;7.35;;;;;;;13.40;53.99;103190.53;5059840;28;20025;-50
2023/01/22 09:54:19;;;;;;;14.05;6.85;;;;;;;13.49;53.72;103186.91;5059037;28;20097;-50
2023/01/22 09:56:49;;;;;;;13.18;7.35;;;;;;;13.50;53.91;103195.84;5062095;28;20026;-51
2023/01/22 09:59:18;;;;;;;14.55;7.30;;;;;;;13.61;53.77;103187.50;5060829;28;20040;-54
2023/01/22 10:01:53;;;;;;;14.20;7.10;;;;;;;13.80;53.29;103193.66;5058264;28;20037;-53
2023/01/22 10:04:22;;;;;;;13.93;7.60;;;;;;;13.74;53.54;103196.00;5060801;28;20037;-52
2023/01/22 10:06:50;;;;;;;17.90;7.18;;;;;;;13.90;53.13;103192.56;5062131;28;20048;-49
2023/01/22 10:09:19;;;;;;;18.08;7.47;;;;;;;14.00;53.11;103187.06;5064135;28;20097;-54
2023/01/22 10:11:52;;;;;;;12.90;6.38;;;;;;;13.85;53.08;103194.03;5061357;28;20091;-49
2023/01/22 10:14:21;;;;;;;15.00;6.82;;;;;;;13.97;53.00;103208.03;5058223;28;20033;-52
2023/01/22 10:16:47;;;;;;;14.95;6.35;;;;;;;13.97;53.07;103208.91;5060755;28;20068;-49
2023/01/22 10:19:46;;;;;;;16.75;6.78;;;;;;;14.10;52.84;103203.06;5061180;28;20101;-53
2023/01/22 10:22:21;;;;;;;14.02;7.07;;;;;;;14.02;53.08;103200.31;5062487;28;20049;-53
2023/01/22 10:24:48;;;;;;;19.30;7.18;;;;;;;14.15;52.69;103187.28;5057570;28;20033;-52
2023/01/22 10:27:16;;;;;;;17.35;8.13;;;;;;;13.84;53.44;103197.72;5065234;28;20024;-50
2023/01/22 10:29:44;;;;;;;16.85;7.05;;;;;;;13.53;53.76;103195.50;5059930;28;20100;-55
2023/01/22 10:32:15;;;;;;;15.63;6.47;;;;;;;13.89;53.45;103201.63;5056684;28;20030;-52
2023/01/22 10:34:41;;;;;;;14.38;6.70;;;;;;;13.99;53.21;103197.97;5061568;28;20045;-52
2023/01/22 10:37:15;;;;;;;12.50;7.10;;;;;;;14.20;52.97;103184.13;5058840;28;20088;-54
2023/01/22 10:39:43;;;;;;;13.65;7.22;;;;;;;13.97;52.91;103192.75;5061204;28;20025;-51
2023/01/22 10:42:22;;;;;;;18.48;7.40;;;;;;;13.81;53.61;103188.13;5062510;28;20044;-52
2023/01/22 10:44:49;;;;;;;12.07;6.90;;;;;;;13.94;53.32;103192.22;5061237;28;20088;-50
2023/01/22 10:47:19;;;;;;;16.15;7.35;;;;;;;14.20;52.95;103187.63;5061906;28;20029;-52
2023/01/22 10:49:46;;;;;;;14.23;7.00;;;;;;;14.24;52.88;103182.78;5063915;28;20072;-50
2023/01/22 10:52:25;;;;;;;19.70;8.02;;;;;;;14.33;52.92;103187.19;5060299;28;20039;-49
2023/01/22 10:54:56;;;;;;;12.10;6.55;;;;;;;14.14;53.18;103184.75;5057013;28;20037;-51
2023/01/22 10:57:31;;;;;;;13.85;7.10;;;;;;;14.36;52.92;103186.03;5062491;28;20097;-51
2023/01/22 10:59:59;;;;;;;12.75;7.78;;;;;;;14.48;52.46;103186.56;5058911;28;20033;-48
2023/01/22 11:02:25;;;;;;;16.73;6.95;;;;;;;14.85;51.62;103179.91;5058227;28;20060;-51
2023/01/22 11:04:51;;;;;;;10.82;6.53;;;;;;;14.79;52.08;103177.88;5061304;28;20036;-53
2023/01/22 11:07:29;;;;;;;14.35;7.20;;;;;;;14.81;51.89;103180.44;5060578;28;20096;-51
2023/01/22 11:10:07;;;;;;;16.48;6.65;;;;;;;14.76;52.13;103179.09;5058240;28;20104;-51
2023/01/22 11:12:39;;;;;;;12.98;7.43;;;;;;;14.53;52.33;103176.13;5060214;28;20112;-53
2023/01/22 11:15:18;;;;;;;15.88;7.25;;;;;;;14.64;52.32;103180.38;5059029;28;20055;-52
2023/01/22 11:17:51;;;;;;;21.25;9.95;;;;;;;14.58;52.49;103179.16;5060252;28;20049;-48
2023/01/22 11:20:31;;;;;;;13.95;8.18;;;;;;;14.71;52.22;103178.72;5062147;28;20102;-53
2023/01/22 11:23:04;;;;;;;15.88;7.40;;;;;;;14.85;51.98;103179.09;5056631;28;20041;-52
2023/01/22 11:25:40;;;;;;;15.07;8.25;;;;;;;14.62;52.42;103180.50;5054952;28;20055;-50
2023/01/22 11:28:16;;;;;;;14.55;7.55;;;;;;;14.49;52.81;103167.53;5060221;28;20036;-53
2023/01/22 11:31:03;;;;;;;13.23;7.22;;;;;;;14.39;52.90;103172.22;5057774;28;20137;-52